createdAt,value
2023-01-06T00:01:28.330Z,17.07
2023-01-06T00:03:59.121Z,16.67
2023-01-06T00:06:28.546Z,18.80
2023-01-06T00:08:57.058Z,21.90
2023-01-06T00:11:26.944Z,21.93
2023-01-06T00:13:56.371Z,13.00
2023-01-06T00:16:24.689Z,19.83
2023-01-06T00:18:55.948Z,14.30
2023-01-06T00:21:24.280Z,16.27
2023-01-06T00:23:52.595Z,20.43
2023-01-06T00:26:20.537Z,15.27
2023-01-06T00:28:53.043Z,18.70
2023-01-06T00:31:21.177Z,19.70
2023-01-06T00:33:49.244Z,21.87
2023-01-06T00:36:17.165Z,16.13
2023-01-06T00:38:45.092Z,17.60
2023-01-06T00:41:28.246Z,17.37
2023-01-06T00:43:57.878Z,20.20
2023-01-06T00:46:28.929Z,15.90
2023-01-06T00:49:04.992Z,13.90
2023-01-06T00:51:34.263Z,9.77
2023-01-06T00:54:02.430Z,18.33
2023-01-06T00:56:30.337Z,17.87
2023-01-06T00:58:59.687Z,12.60
2023-01-06T01:01:27.712Z,16.83
2023-01-06T01:03:55.698Z,14.90
2023-01-06T01:06:23.935Z,20.53
2023-01-06T01:08:54.487Z,17.10
2023-01-06T01:11:36.717Z,22.47
2023-01-06T01:14:06.061Z,16.93
2023-01-06T01:16:34.011Z,18.53
2023-01-06T01:19:02.244Z,19.53
2023-01-06T01:21:30.182Z,20.50
2023-01-06T01:23:58.472Z,16.83
2023-01-06T01:26:26.633Z,16.63
2023-01-06T01:28:54.565Z,22.73
2023-01-06T01:31:23.876Z,20.57
2023-01-06T01:33:52.052Z,22.30
2023-01-06T01:36:20.334Z,17.67
2023-01-06T01:38:48.251Z,21.70
2023-01-06T01:41:19.027Z,21.10
2023-01-06T01:43:48.314Z,20.00
2023-01-06T01:46:19.754Z,18.10
2023-01-06T01:48:49.246Z,20.00
2023-01-06T01:51:20.343Z,18.60
2023-01-06T01:53:49.743Z,16.63
2023-01-06T01:56:21.222Z,21.70
2023-01-06T01:58:55.579Z,17.00
2023-01-06T02:01:23.633Z,17.83
2023-01-06T02:03:53.114Z,18.17
2023-01-06T02:06:23.154Z,20.00
2023-01-06T02:08:55.931Z,16.87
2023-01-06T02:11:24.468Z,19.43
2023-01-06T02:13:55.476Z,20.37
2023-01-06T02:16:25.076Z,21.13
2023-01-06T02:19:00.960Z,22.63
2023-01-06T02:21:41.717Z,23.93
2023-01-06T02:24:52.020Z,24.93
2023-01-06T02:27:42.821Z,33.17
2023-01-06T02:30:41.155Z,21.83
2023-01-06T02:33:20.615Z,18.30
2023-01-06T02:36:23.304Z,25.67
2023-01-06T02:39:02.828Z,23.00
2023-01-06T02:41:34.048Z,28.07
2023-01-06T02:44:05.723Z,25.57
2023-01-06T02:46:54.098Z,29.43
2023-01-06T02:49:29.561Z,28.53
2023-01-06T02:52:01.139Z,28.13
2023-01-06T02:54:33.295Z,24.77
2023-01-06T02:57:06.815Z,30.43
2023-01-06T02:59:39.375Z,26.70
2023-01-06T03:02:07.926Z,28.90
2023-01-06T03:04:41.036Z,36.00
2023-01-06T03:07:10.361Z,38.53
2023-01-06T03:09:39.721Z,40.10
2023-01-06T03:12:11.431Z,37.87
2023-01-06T03:14:40.839Z,30.90
2023-01-06T03:17:08.821Z,35.93
2023-01-06T03:19:38.181Z,39.60
2023-01-06T03:22:07.850Z,34.13
2023-01-06T03:24:36.537Z,42.53
2023-01-06T03:27:04.970Z,31.00
2023-01-06T03:29:33.088Z,38.93
2023-01-06T03:32:03.331Z,26.87
2023-01-06T03:34:43.852Z,31.87
2023-01-06T03:37:18.160Z,30.87
2023-01-06T03:39:51.424Z,33.20
2023-01-06T03:42:42.327Z,25.93
2023-01-06T03:45:17.073Z,32.87
2023-01-06T03:47:51.647Z,29.53
2023-01-06T03:50:24.224Z,24.97
2023-01-06T03:52:59.357Z,29.93
2023-01-06T03:55:31.854Z,24.93
2023-01-06T03:58:00.646Z,27.10
2023-01-06T04:00:30.782Z,30.97
2023-01-06T04:02:58.737Z,29.40
2023-01-06T04:05:29.230Z,29.43
2023-01-06T04:07:57.232Z,29.47
2023-01-06T04:10:25.469Z,41.10
2023-01-06T04:12:52.579Z,30.10
2023-01-06T04:15:22.181Z,30.57
2023-01-06T04:17:50.226Z,30.03
2023-01-06T04:20:20.370Z,31.03
2023-01-06T04:22:49.647Z,29.80
2023-01-06T04:25:17.602Z,33.57
2023-01-06T04:27:45.519Z,30.33
2023-01-06T04:30:13.883Z,30.30
2023-01-06T04:32:41.800Z,27.67
2023-01-06T04:35:10.417Z,30.23
2023-01-06T04:37:38.527Z,26.50
2023-01-06T04:40:09.323Z,28.23
2023-01-06T04:42:51.083Z,24.03
2023-01-06T04:45:19.948Z,26.03
2023-01-06T04:47:47.872Z,26.67
2023-01-06T04:50:15.959Z,26.80
2023-01-06T04:52:43.919Z,25.83
2023-01-06T04:55:13.768Z,24.70
2023-01-06T04:57:42.211Z,24.90
2023-01-06T05:00:11.389Z,29.40
2023-01-06T05:02:39.315Z,18.50
2023-01-06T05:05:07.995Z,24.40
2023-01-06T05:07:35.943Z,25.93
2023-01-06T05:10:03.934Z,25.57
2023-01-06T05:12:33.770Z,28.17
2023-01-06T05:15:01.675Z,21.60
2023-01-06T05:17:29.677Z,22.67
2023-01-06T05:19:57.755Z,19.67
2023-01-06T05:22:25.656Z,24.80
2023-01-06T05:24:53.580Z,24.67
2023-01-06T05:27:21.534Z,24.10
2023-01-06T05:29:50.818Z,21.10
2023-01-06T05:32:18.707Z,26.23
2023-01-06T05:34:46.619Z,25.07
2023-01-06T05:37:14.536Z,16.27
2023-01-06T05:39:42.510Z,18.40
2023-01-06T05:42:10.406Z,18.93
2023-01-06T05:44:38.321Z,20.77
2023-01-06T05:47:07.667Z,17.67
2023-01-06T05:49:35.582Z,18.33
2023-01-06T05:52:03.504Z,19.07
2023-01-06T05:54:31.430Z,15.90
2023-01-06T05:56:59.359Z,18.10
2023-01-06T05:59:27.282Z,17.57
2023-01-06T06:01:55.229Z,17.23
2023-01-06T06:04:24.540Z,17.10
2023-01-06T06:06:52.437Z,23.50
2023-01-06T06:09:20.350Z,23.83
2023-01-06T06:11:51.758Z,22.37
2023-01-06T06:14:20.168Z,22.53
2023-01-06T06:16:48.202Z,17.80
2023-01-06T06:19:16.541Z,22.40
2023-01-06T06:21:46.028Z,19.07
2023-01-06T06:24:14.043Z,18.43
2023-01-06T06:26:41.971Z,19.70
2023-01-06T06:29:10.037Z,21.33
2023-01-06T06:31:38.214Z,17.87
2023-01-06T06:34:06.581Z,21.17
2023-01-06T06:36:34.488Z,18.23
2023-01-06T06:39:03.971Z,19.97
2023-01-06T06:41:31.890Z,17.10
2023-01-06T06:43:59.991Z,17.87
2023-01-06T06:46:27.959Z,18.23
2023-01-06T06:48:55.872Z,20.93
2023-01-06T06:51:23.999Z,16.27
2023-01-06T06:53:52.089Z,21.13
2023-01-06T06:56:21.866Z,16.47
2023-01-06T06:58:49.843Z,18.07
2023-01-06T07:01:19.020Z,16.77
2023-01-06T07:03:47.156Z,15.30
2023-01-06T07:06:16.340Z,14.30
2023-01-06T07:08:44.870Z,14.90
2023-01-06T07:11:12.828Z,16.13
2023-01-06T07:13:42.207Z,16.23
2023-01-06T07:16:10.375Z,19.47
2023-01-06T07:18:38.553Z,15.07
2023-01-06T07:21:07.111Z,12.53
2023-01-06T07:23:35.434Z,13.30
2023-01-06T07:26:03.919Z,12.27
2023-01-06T07:28:32.878Z,14.27
2023-01-06T07:31:02.640Z,20.00
2023-01-06T07:33:30.606Z,13.63
2023-01-06T07:35:59.024Z,12.07
2023-01-06T07:38:27.045Z,13.77
2023-01-06T07:40:56.132Z,12.67
2023-01-06T07:43:24.024Z,11.23
2023-01-06T07:45:52.055Z,13.33
2023-01-06T07:48:21.410Z,12.03
2023-01-06T07:50:49.427Z,10.17
2023-01-06T07:53:17.368Z,8.87
2023-01-06T07:55:51.863Z,12.47
2023-01-06T07:58:19.829Z,11.70
2023-01-06T08:00:47.737Z,9.80
2023-01-06T08:03:15.733Z,9.37
2023-01-06T08:05:45.035Z,7.87
2023-01-06T08:08:13.486Z,7.97
2023-01-06T08:10:41.568Z,7.30
2023-01-06T08:13:09.936Z,7.93
2023-01-06T08:15:38.881Z,6.60
2023-01-06T08:18:06.979Z,12.17
2023-01-06T08:20:35.084Z,11.73
2023-01-06T08:23:04.407Z,6.33
2023-01-06T08:25:32.341Z,7.07
2023-01-06T08:28:00.880Z,5.57
2023-01-06T08:30:29.038Z,6.60
2023-01-06T08:32:57.824Z,4.50
2023-01-06T08:35:25.988Z,6.10
2023-01-06T08:37:54.022Z,5.13
2023-01-06T08:40:23.465Z,5.27
2023-01-06T08:42:51.376Z,8.97
2023-01-06T08:45:19.592Z,7.17
2023-01-06T08:47:47.581Z,5.17
2023-01-06T08:50:15.492Z,40.63
2023-01-06T08:52:43.415Z,7.13
2023-01-06T08:55:11.329Z,4.30
2023-01-06T08:57:40.766Z,7.37
2023-01-06T09:00:10.267Z,4.70
2023-01-06T09:02:38.216Z,5.57
2023-01-06T09:05:07.043Z,5.77
2023-01-06T09:07:35.133Z,6.63
2023-01-06T09:10:03.304Z,6.37
2023-01-06T09:12:31.289Z,5.73
2023-01-06T09:15:00.669Z,5.33
2023-01-06T09:17:28.559Z,7.47
2023-01-06T09:19:56.470Z,7.13
2023-01-06T09:22:24.418Z,4.00
2023-01-06T09:24:52.350Z,5.90
2023-01-06T09:27:21.170Z,4.27
2023-01-06T09:29:50.669Z,3.87
2023-01-06T09:32:20.166Z,4.80
2023-01-06T09:34:48.079Z,6.10
2023-01-06T09:37:16.120Z,4.60
2023-01-06T09:39:44.036Z,5.70
2023-01-06T09:42:30.296Z,3.53
2023-01-06T09:45:00.173Z,6.27
2023-01-06T09:47:31.399Z,3.73
2023-01-06T09:50:03.585Z,5.97
2023-01-06T09:52:35.034Z,5.37
2023-01-06T09:55:07.840Z,5.97
2023-01-06T09:57:38.722Z,3.67
2023-01-06T10:00:09.539Z,3.53
2023-01-06T10:02:41.061Z,7.67
2023-01-06T10:05:20.349Z,6.27
2023-01-06T10:07:53.170Z,5.33
2023-01-06T10:10:26.717Z,5.00
2023-01-06T10:13:04.365Z,6.60
2023-01-06T10:15:41.855Z,5.50
2023-01-06T10:18:21.622Z,4.50
2023-01-06T10:21:02.052Z,5.07
2023-01-06T10:23:41.411Z,5.27
2023-01-06T10:26:13.744Z,6.03
2023-01-06T10:28:44.190Z,6.53
2023-01-06T10:31:13.772Z,7.30
2023-01-06T10:33:45.358Z,5.90
2023-01-06T10:36:14.340Z,5.87
2023-01-06T10:38:43.979Z,5.50
2023-01-06T10:41:17.088Z,5.00
2023-01-06T10:43:44.984Z,4.23
2023-01-06T10:46:13.016Z,3.90
2023-01-06T10:48:41.192Z,3.20
2023-01-06T10:51:29.461Z,5.97
2023-01-06T10:53:58.624Z,5.03
2023-01-06T10:56:26.915Z,4.47
2023-01-06T10:58:57.475Z,3.03
2023-01-06T11:01:26.933Z,2.67
2023-01-06T11:04:07.853Z,4.40
2023-01-06T11:06:38.355Z,5.57
2023-01-06T11:09:10.560Z,2.90
2023-01-06T11:11:48.656Z,3.17
2023-01-06T11:14:19.108Z,2.40
2023-01-06T11:16:54.857Z,2.00
2023-01-06T11:19:26.241Z,3.60
2023-01-06T11:21:55.640Z,2.13
2023-01-06T11:24:25.533Z,2.80
2023-01-06T11:26:55.064Z,2.97
2023-01-06T11:29:28.415Z,7.03
2023-01-06T11:31:57.017Z,2.70
2023-01-06T11:34:26.366Z,2.70
2023-01-06T11:36:55.675Z,6.73
2023-01-06T11:39:27.413Z,8.57
2023-01-06T11:41:56.882Z,3.90
2023-01-06T11:44:31.415Z,4.47
2023-01-06T11:47:00.901Z,4.57
2023-01-06T11:49:31.894Z,1.33
2023-01-06T11:52:06.237Z,3.60
2023-01-06T11:54:36.952Z,2.73
2023-01-06T11:57:17.827Z,3.40
2023-01-06T11:59:54.591Z,2.00
2023-01-06T12:02:27.216Z,2.83
2023-01-06T12:04:57.115Z,5.73
2023-01-06T12:07:31.911Z,4.77
2023-01-06T12:10:01.990Z,4.57
2023-01-06T12:12:30.219Z,1.43
2023-01-06T12:14:58.625Z,1.10
2023-01-06T12:17:38.721Z,4.37
2023-01-06T12:20:09.895Z,5.70
2023-01-06T12:22:41.986Z,1.67
2023-01-06T12:25:14.930Z,4.07
2023-01-06T12:27:49.994Z,2.77
2023-01-06T12:30:24.179Z,2.47
2023-01-06T12:32:53.705Z,2.83
2023-01-06T12:35:23.772Z,3.83
2023-01-06T12:37:55.646Z,3.30
2023-01-06T12:40:28.917Z,1.30
2023-01-06T12:43:01.788Z,5.40
2023-01-06T12:45:36.253Z,3.53
2023-01-06T12:48:13.091Z,4.20
2023-01-06T12:50:43.920Z,3.07
2023-01-06T12:53:21.075Z,5.10
2023-01-06T12:55:56.688Z,3.30
2023-01-06T12:58:28.418Z,2.03
2023-01-06T13:01:01.528Z,2.30
2023-01-06T13:03:53.466Z,3.90
2023-01-06T13:06:35.825Z,3.83
2023-01-06T13:09:16.986Z,4.13
2023-01-06T13:12:12.024Z,3.43
2023-01-06T13:14:43.954Z,4.60
2023-01-06T13:17:19.155Z,3.97
2023-01-06T13:19:50.485Z,5.40
2023-01-06T13:22:20.736Z,5.37
2023-01-06T13:25:00.799Z,6.67
2023-01-06T13:27:40.886Z,4.67
2023-01-06T13:30:19.902Z,3.00
2023-01-06T13:33:09.535Z,3.00
2023-01-06T13:35:56.799Z,5.67
2023-01-06T13:39:00.202Z,2.93
2023-01-06T13:41:32.741Z,4.73
2023-01-06T13:44:01.750Z,4.17
2023-01-06T13:46:31.118Z,3.07
2023-01-06T13:49:01.555Z,2.57
2023-01-06T13:51:33.417Z,4.43
2023-01-06T13:54:03.021Z,1.00
2023-01-06T13:56:36.356Z,2.90
2023-01-06T13:59:24.540Z,2.07
2023-01-06T14:01:53.650Z,3.07
2023-01-06T14:04:47.376Z,5.73
2023-01-06T14:07:16.509Z,1.60
2023-01-06T14:09:49.854Z,1.90
2023-01-06T14:12:22.471Z,1.63
2023-01-06T14:14:58.105Z,3.90
2023-01-06T14:17:33.338Z,2.30
2023-01-06T14:20:01.388Z,3.00
2023-01-06T14:22:31.600Z,5.83
2023-01-06T14:25:02.567Z,2.60
2023-01-06T14:28:16.087Z,6.80
2023-01-06T14:30:45.371Z,5.73
2023-01-06T14:33:36.331Z,4.60
2023-01-06T14:36:07.339Z,2.97
2023-01-06T14:38:42.458Z,3.70
2023-01-06T14:41:21.895Z,6.70
2023-01-06T14:43:54.803Z,4.17
2023-01-06T14:46:27.408Z,4.10
2023-01-06T14:48:58.697Z,2.43
2023-01-06T14:51:27.038Z,1.30
2023-01-06T14:54:00.048Z,4.30
2023-01-06T14:56:30.548Z,4.83
2023-01-06T14:59:12.496Z,5.77
2023-01-06T15:01:44.301Z,2.73
2023-01-06T15:04:26.609Z,1.10
2023-01-06T15:06:59.800Z,2.87
2023-01-06T15:09:27.951Z,5.60
2023-01-06T15:11:55.979Z,3.57
2023-01-06T15:14:32.084Z,7.43
2023-01-06T15:17:04.216Z,4.53
2023-01-06T15:19:32.500Z,8.63
2023-01-06T15:22:01.540Z,3.63
2023-01-06T15:24:32.263Z,9.80
2023-01-06T15:27:05.759Z,15.70
2023-01-06T15:29:34.137Z,7.47
2023-01-06T15:32:04.162Z,7.33
2023-01-06T15:34:35.227Z,12.87
2023-01-06T15:37:04.260Z,5.70
2023-01-06T15:39:35.003Z,9.83
2023-01-06T15:42:05.386Z,12.37
2023-01-06T15:44:34.958Z,3.77
2023-01-06T15:47:17.362Z,5.60
2023-01-06T15:49:50.302Z,6.03
2023-01-06T15:52:24.151Z,6.47
2023-01-06T15:54:53.122Z,4.43
2023-01-06T15:57:21.039Z,6.83
2023-01-06T15:59:56.927Z,6.30
2023-01-06T16:02:27.819Z,5.40
2023-01-06T16:04:55.909Z,5.10
2023-01-06T16:07:34.745Z,3.50
2023-01-06T16:10:02.673Z,2.23
2023-01-06T16:12:30.645Z,3.90
2023-01-06T16:14:58.577Z,5.27
2023-01-06T16:17:31.024Z,5.10
2023-01-06T16:20:02.814Z,4.27
2023-01-06T16:22:34.742Z,6.57
2023-01-06T16:25:05.305Z,4.17
2023-01-06T16:27:33.324Z,6.83
2023-01-06T16:30:20.884Z,3.30
2023-01-06T16:32:52.545Z,3.60
2023-01-06T16:35:22.104Z,3.93
2023-01-06T16:37:50.598Z,7.17
2023-01-06T16:40:20.160Z,7.07
2023-01-06T16:42:49.022Z,6.93
2023-01-06T16:45:23.069Z,5.00
2023-01-06T16:47:52.414Z,3.20
2023-01-06T16:50:23.066Z,3.37
2023-01-06T16:52:55.729Z,6.30
2023-01-06T16:55:24.046Z,2.70
2023-01-06T16:57:52.479Z,6.20
2023-01-06T17:00:22.007Z,6.27
2023-01-06T17:02:52.645Z,5.93
2023-01-06T17:05:24.153Z,10.10
2023-01-06T17:07:53.517Z,9.23
2023-01-06T17:10:23.290Z,9.97
2023-01-06T17:13:12.569Z,7.20
2023-01-06T17:15:40.786Z,5.70
2023-01-06T17:18:21.168Z,6.80
2023-01-06T17:20:49.463Z,7.40
2023-01-06T17:23:17.680Z,7.97
2023-01-06T17:25:45.809Z,5.10
2023-01-06T17:28:20.008Z,4.30
2023-01-06T17:30:48.764Z,4.87
2023-01-06T17:33:19.769Z,6.47
2023-01-06T17:35:56.276Z,6.67
2023-01-06T17:38:25.292Z,3.77
2023-01-06T17:40:54.610Z,3.90
2023-01-06T17:43:29.151Z,3.90
2023-01-06T17:45:57.198Z,4.73
2023-01-06T17:48:27.335Z,5.57
2023-01-06T17:50:56.925Z,6.03
2023-01-06T17:53:46.866Z,9.80
2023-01-06T17:56:14.901Z,6.07
2023-01-06T17:58:44.346Z,11.13
2023-01-06T18:01:16.048Z,18.17
2023-01-06T18:03:45.387Z,11.17
2023-01-06T18:06:26.385Z,4.43
2023-01-06T18:09:03.565Z,4.50
2023-01-06T18:11:35.939Z,3.13
2023-01-06T18:14:16.600Z,9.53
2023-01-06T18:16:46.158Z,4.17
2023-01-06T18:19:25.817Z,10.57
2023-01-06T18:21:54.045Z,6.30
2023-01-06T18:24:25.904Z,4.13
2023-01-06T18:26:56.514Z,8.63
2023-01-06T18:29:26.415Z,5.47
2023-01-06T18:31:55.723Z,4.63
2023-01-06T18:34:33.811Z,5.00
2023-01-06T18:37:02.672Z,5.77
2023-01-06T18:39:32.207Z,5.23
2023-01-06T18:42:14.239Z,4.00
2023-01-06T18:44:42.172Z,7.27
2023-01-06T18:47:15.605Z,3.80
2023-01-06T18:49:45.098Z,4.93
2023-01-06T18:52:40.772Z,8.00
2023-01-06T18:55:35.234Z,5.60
2023-01-06T18:58:05.905Z,6.33
2023-01-06T19:00:37.192Z,3.70
2023-01-06T19:03:30.657Z,8.07
2023-01-06T19:06:34.269Z,8.73
2023-01-06T19:09:03.339Z,4.70
2023-01-06T19:11:33.480Z,7.50
2023-01-06T19:14:02.882Z,5.23
2023-01-06T19:16:34.233Z,7.60
2023-01-06T19:19:30.124Z,3.70
2023-01-06T19:22:27.373Z,6.83
2023-01-06T19:25:03.459Z,7.43
2023-01-06T19:27:55.987Z,5.43
2023-01-06T19:30:44.838Z,6.47
2023-01-06T19:33:35.038Z,6.50
2023-01-06T19:36:49.489Z,6.73
2023-01-06T19:39:31.352Z,4.37
2023-01-06T19:42:03.324Z,10.03
2023-01-06T19:44:34.219Z,10.93
2023-01-06T19:47:07.599Z,3.90
2023-01-06T19:49:39.727Z,4.70
2023-01-06T19:52:19.094Z,5.27
2023-01-06T19:54:48.435Z,2.33
2023-01-06T19:57:24.712Z,5.60
2023-01-06T19:59:52.665Z,7.07
2023-01-06T20:02:28.595Z,2.50
2023-01-06T20:04:57.037Z,3.27
2023-01-06T20:07:25.058Z,5.63
2023-01-06T20:09:56.110Z,5.70
2023-01-06T20:12:24.034Z,4.70
2023-01-06T20:14:51.929Z,5.20
2023-01-06T20:17:19.834Z,6.53
2023-01-06T20:19:47.731Z,9.90
2023-01-06T20:22:15.646Z,5.93
2023-01-06T20:24:43.628Z,7.90
2023-01-06T20:27:12.913Z,3.00
2023-01-06T20:29:40.860Z,3.47
2023-01-06T20:32:08.800Z,3.03
2023-01-06T20:34:36.866Z,5.10
2023-01-06T20:37:04.768Z,4.90
2023-01-06T20:39:32.915Z,4.77
2023-01-06T20:42:03.719Z,3.57
2023-01-06T20:44:33.041Z,4.77
2023-01-06T20:47:00.967Z,5.77
2023-01-06T20:49:28.861Z,6.77
2023-01-06T20:51:56.818Z,6.60
2023-01-06T20:54:24.717Z,9.00
2023-01-06T20:56:53.911Z,5.23
2023-01-06T20:59:21.844Z,5.33
2023-01-06T21:01:51.403Z,7.03
2023-01-06T21:04:19.408Z,5.73
2023-01-06T21:06:48.172Z,4.37
2023-01-06T21:09:16.151Z,4.53
2023-01-06T21:11:44.098Z,6.23
2023-01-06T21:14:12.230Z,6.63
2023-01-06T21:16:40.155Z,2.70
2023-01-06T21:19:09.455Z,2.43
2023-01-06T21:21:37.382Z,6.00
2023-01-06T21:24:05.844Z,7.73
2023-01-06T21:26:33.797Z,3.57
2023-01-06T21:29:01.745Z,4.50
2023-01-06T21:31:29.670Z,8.67
2023-01-06T21:33:57.583Z,6.33
2023-01-06T21:36:26.881Z,4.40
2023-01-06T21:38:54.808Z,8.03
2023-01-06T21:41:40.030Z,8.53
2023-01-06T21:44:07.962Z,2.80
2023-01-06T21:46:39.838Z,5.20
2023-01-06T21:49:07.898Z,4.07
2023-01-06T21:51:37.646Z,4.73
2023-01-06T21:54:05.988Z,4.30
2023-01-06T21:56:34.216Z,6.57
2023-01-06T21:59:02.248Z,3.70
2023-01-06T22:01:30.189Z,4.30
2023-01-06T22:03:58.184Z,3.57
2023-01-06T22:06:28.284Z,3.10
2023-01-06T22:08:58.284Z,8.07
2023-01-06T22:11:26.284Z,6.57
2023-01-06T22:13:54.566Z,3.93
2023-01-06T22:16:22.600Z,9.13
2023-01-06T22:18:50.580Z,5.57
2023-01-06T22:21:18.504Z,7.33
2023-01-06T22:23:46.427Z,5.13
2023-01-06T22:26:15.743Z,4.80
2023-01-06T22:28:43.744Z,3.10
2023-01-06T22:31:11.685Z,8.03
2023-01-06T22:33:39.631Z,3.60
2023-01-06T22:36:08.735Z,7.60
2023-01-06T22:38:37.038Z,7.20
2023-01-06T22:41:04.989Z,3.67
2023-01-06T22:43:34.291Z,6.70
2023-01-06T22:46:02.288Z,3.57
2023-01-06T22:48:30.228Z,6.20
2023-01-06T22:50:59.127Z,5.97
2023-01-06T22:53:27.846Z,5.20
2023-01-06T22:55:59.716Z,4.53
2023-01-06T22:58:27.873Z,5.63
2023-01-06T23:00:57.498Z,6.20
2023-01-06T23:03:25.613Z,7.67
2023-01-06T23:05:57.970Z,6.07
2023-01-06T23:08:27.630Z,9.67
2023-01-06T23:10:59.924Z,6.77
2023-01-06T23:13:27.920Z,8.90
2023-01-06T23:16:08.657Z,3.80
2023-01-06T23:18:38.458Z,4.17
2023-01-06T23:21:07.895Z,6.03
2023-01-06T23:23:36.861Z,5.17
2023-01-06T23:26:05.904Z,6.53
2023-01-06T23:28:34.340Z,3.60
2023-01-06T23:31:04.127Z,5.40
2023-01-06T23:33:33.888Z,6.13
2023-01-06T23:36:03.115Z,8.77
2023-01-06T23:38:31.796Z,7.47
2023-01-06T23:41:07.789Z,5.93
2023-01-06T23:43:36.855Z,9.10
2023-01-06T23:46:06.167Z,7.83
2023-01-06T23:48:36.180Z,5.00
2023-01-06T23:51:05.000Z,6.53
2023-01-06T23:53:33.841Z,5.87
2023-01-06T23:56:03.518Z,12.17
2023-01-06T23:58:32.964Z,4.40
